createdAt,value
2023-01-06T00:01:16.912Z,13.02
2023-01-06T00:03:18.415Z,13.02
2023-01-06T00:05:20.290Z,13.03
2023-01-06T00:07:21.966Z,13.04
2023-01-06T00:09:23.615Z,13.05
2023-01-06T00:11:28.285Z,13.06
2023-01-06T00:13:29.813Z,13.06
2023-01-06T00:15:32.381Z,13.06
2023-01-06T00:17:34.267Z,13.05
2023-01-06T00:19:38.970Z,13.06
2023-01-06T00:21:42.557Z,13.08
2023-01-06T00:23:44.100Z,13.09
2023-01-06T00:25:50.779Z,13.08
2023-01-06T00:27:52.398Z,13.09
2023-01-06T00:29:53.953Z,13.10
2023-01-06T00:31:58.542Z,13.10
2023-01-06T00:34:00.103Z,13.11
2023-01-06T00:36:05.461Z,13.12
2023-01-06T00:38:07.399Z,13.13
2023-01-06T00:40:09.614Z,13.14
2023-01-06T00:42:12.907Z,13.15
2023-01-06T00:44:14.523Z,13.15
2023-01-06T00:46:16.113Z,13.16
2023-01-06T00:48:17.797Z,13.17
2023-01-06T00:50:19.573Z,13.17
2023-01-06T00:52:21.276Z,13.19
2023-01-06T00:54:22.970Z,13.18
2023-01-06T00:56:24.544Z,13.18
2023-01-06T00:58:30.118Z,13.20
2023-01-06T01:00:31.722Z,13.21
2023-01-06T01:02:34.131Z,13.22
2023-01-06T01:04:35.740Z,13.23
2023-01-06T01:06:37.934Z,13.24
2023-01-06T01:08:39.620Z,13.25
2023-01-06T01:10:44.170Z,13.26
2023-01-06T01:12:48.803Z,13.26
2023-01-06T01:14:53.621Z,13.26
2023-01-06T01:16:55.506Z,13.27
2023-01-06T01:19:00.334Z,13.29
2023-01-06T01:21:02.824Z,13.30
2023-01-06T01:23:04.300Z,13.30
2023-01-06T01:25:11.205Z,13.30
2023-01-06T01:27:13.439Z,13.32
2023-01-06T01:29:17.107Z,13.31
2023-01-06T01:31:18.841Z,13.33
2023-01-06T01:33:20.442Z,13.33
2023-01-06T01:35:22.079Z,13.35
2023-01-06T01:37:23.640Z,13.36
2023-01-06T01:39:31.811Z,13.36
2023-01-06T01:41:33.422Z,13.36
2023-01-06T01:43:47.164Z,13.36
2023-01-06T01:45:54.048Z,13.40
2023-01-06T01:48:03.490Z,13.38
2023-01-06T01:50:22.348Z,13.39
2023-01-06T01:52:24.800Z,13.40
2023-01-06T01:54:30.135Z,13.41
2023-01-06T01:56:38.900Z,13.42
2023-01-06T01:58:46.072Z,13.42
2023-01-06T02:00:51.568Z,13.43
2023-01-06T02:02:54.872Z,13.43
2023-01-06T02:04:56.840Z,13.46
2023-01-06T02:06:58.644Z,13.46
2023-01-06T02:09:26.843Z,13.45
2023-01-06T02:11:32.582Z,13.47
2023-01-06T02:13:37.025Z,13.47
2023-01-06T02:15:43.229Z,13.48
2023-01-06T02:18:08.838Z,13.49
2023-01-06T02:20:22.597Z,13.49
2023-01-06T02:23:02.711Z,13.50
2023-01-06T02:25:38.103Z,13.48
2023-01-06T02:28:05.777Z,13.49
2023-01-06T02:30:38.816Z,13.48
2023-01-06T02:32:43.429Z,13.50
2023-01-06T02:35:01.790Z,13.50
2023-01-06T02:37:30.462Z,13.52
2023-01-06T02:39:52.302Z,13.53
2023-01-06T02:42:20.482Z,13.53
2023-01-06T02:44:47.630Z,13.53
2023-01-06T02:47:00.441Z,13.55
2023-01-06T02:49:11.128Z,13.55
2023-01-06T02:51:31.378Z,13.58
2023-01-06T02:53:44.952Z,13.57
2023-01-06T02:55:49.157Z,13.60
2023-01-06T02:58:02.156Z,13.60
2023-01-06T03:00:10.065Z,13.62
2023-01-06T03:02:12.941Z,13.61
2023-01-06T03:04:22.900Z,13.61
2023-01-06T03:06:29.567Z,13.63
2023-01-06T03:08:32.810Z,13.64
2023-01-06T03:10:34.772Z,13.66
2023-01-06T03:12:48.400Z,13.66
2023-01-06T03:14:55.079Z,13.67
2023-01-06T03:16:58.101Z,13.66
2023-01-06T03:18:59.780Z,13.66
2023-01-06T03:21:08.268Z,13.66
2023-01-06T03:23:10.239Z,13.67
2023-01-06T03:25:12.607Z,13.67
2023-01-06T03:27:24.278Z,13.68
2023-01-06T03:29:26.250Z,13.67
2023-01-06T03:31:49.174Z,13.67
2023-01-06T03:34:04.676Z,13.67
2023-01-06T03:36:54.178Z,13.67
2023-01-06T03:39:18.466Z,13.66
2023-01-06T03:41:53.494Z,13.66
2023-01-06T03:44:15.004Z,13.66
2023-01-06T03:46:42.813Z,13.65
2023-01-06T03:49:22.313Z,13.68
2023-01-06T03:51:40.644Z,13.68
2023-01-06T03:54:02.846Z,13.67
2023-01-06T03:56:21.898Z,13.68
2023-01-06T03:58:26.375Z,13.69
2023-01-06T04:00:31.346Z,13.69
2023-01-06T04:02:40.168Z,13.71
2023-01-06T04:04:43.761Z,13.71
2023-01-06T04:06:49.781Z,13.71
2023-01-06T04:08:51.681Z,13.73
2023-01-06T04:10:53.473Z,13.73
2023-01-06T04:12:55.300Z,13.74
2023-01-06T04:15:06.988Z,13.74
2023-01-06T04:17:08.596Z,13.75
2023-01-06T04:19:10.412Z,13.74
2023-01-06T04:21:12.352Z,13.74
2023-01-06T04:23:13.922Z,13.76
2023-01-06T04:25:16.613Z,13.75
2023-01-06T04:27:18.113Z,13.76
2023-01-06T04:29:31.125Z,13.76
2023-01-06T04:31:35.645Z,13.76
2023-01-06T04:33:37.860Z,13.76
2023-01-06T04:35:43.454Z,13.77
2023-01-06T04:37:45.045Z,13.79
2023-01-06T04:39:46.683Z,13.79
2023-01-06T04:41:48.268Z,13.80
2023-01-06T04:43:49.901Z,13.81
2023-01-06T04:45:53.863Z,13.81
2023-01-06T04:47:55.425Z,13.81
2023-01-06T04:49:59.911Z,13.82
2023-01-06T04:52:01.476Z,13.83
2023-01-06T04:54:03.117Z,13.83
2023-01-06T04:56:06.948Z,13.84
2023-01-06T04:58:09.580Z,13.83
2023-01-06T05:00:11.960Z,13.84
2023-01-06T05:02:13.480Z,13.85
2023-01-06T05:04:15.077Z,13.88
2023-01-06T05:06:17.507Z,13.87
2023-01-06T05:08:20.324Z,13.88
2023-01-06T05:10:23.230Z,13.89
2023-01-06T05:12:24.784Z,13.89
2023-01-06T05:14:26.611Z,13.89
2023-01-06T05:16:33.510Z,13.92
2023-01-06T05:18:35.920Z,13.91
2023-01-06T05:20:37.595Z,13.91
2023-01-06T05:22:39.228Z,13.92
2023-01-06T05:24:40.925Z,13.91
2023-01-06T05:26:42.602Z,13.92
2023-01-06T05:28:44.335Z,13.94
2023-01-06T05:30:46.085Z,13.94
2023-01-06T05:32:47.617Z,13.94
2023-01-06T05:34:50.362Z,13.95
2023-01-06T05:36:52.012Z,13.95
2023-01-06T05:38:54.201Z,13.95
2023-01-06T05:40:56.863Z,13.96
2023-01-06T05:42:58.626Z,13.96
2023-01-06T05:45:00.190Z,13.96
2023-01-06T05:47:01.882Z,13.98
2023-01-06T05:49:03.836Z,13.96
2023-01-06T05:51:14.384Z,13.96
2023-01-06T05:53:16.320Z,13.97
2023-01-06T05:55:18.077Z,13.99
2023-01-06T05:57:22.357Z,13.99
2023-01-06T05:59:24.051Z,14.00
2023-01-06T06:01:28.664Z,14.00
2023-01-06T06:03:31.370Z,14.01
2023-01-06T06:05:32.931Z,14.00
2023-01-06T06:07:34.463Z,14.01
2023-01-06T06:09:36.120Z,14.04
2023-01-06T06:11:46.751Z,14.03
2023-01-06T06:13:53.894Z,14.03
2023-01-06T06:16:15.622Z,14.03
2023-01-06T06:18:17.363Z,14.04
2023-01-06T06:20:18.829Z,14.03
2023-01-06T06:22:20.639Z,14.05
2023-01-06T06:24:22.182Z,14.05
2023-01-06T06:26:24.322Z,14.05
2023-01-06T06:28:25.859Z,14.04
2023-01-06T06:30:27.570Z,14.05
2023-01-06T06:32:35.228Z,14.06
2023-01-06T06:34:36.976Z,14.07
2023-01-06T06:36:38.679Z,14.07
2023-01-06T06:38:40.192Z,14.07
2023-01-06T06:40:44.715Z,14.07
2023-01-06T06:42:51.166Z,14.09
2023-01-06T06:44:52.841Z,14.09
2023-01-06T06:46:54.722Z,14.08
2023-01-06T06:48:56.258Z,14.10
2023-01-06T06:50:59.110Z,14.10
2023-01-06T06:53:00.720Z,14.11
2023-01-06T06:55:03.002Z,14.12
2023-01-06T06:57:04.559Z,14.13
2023-01-06T06:59:09.078Z,14.12
2023-01-06T07:01:13.207Z,14.13
2023-01-06T07:03:14.790Z,14.13
2023-01-06T07:05:17.635Z,14.10
2023-01-06T07:07:19.407Z,14.12
2023-01-06T07:09:21.172Z,14.12
2023-01-06T07:11:23.180Z,14.14
2023-01-06T07:13:24.722Z,14.14
2023-01-06T07:15:26.365Z,14.16
2023-01-06T07:17:28.476Z,14.14
2023-01-06T07:19:29.993Z,14.14
2023-01-06T07:21:31.617Z,14.15
2023-01-06T07:23:33.995Z,14.15
2023-01-06T07:25:35.663Z,14.16
2023-01-06T07:27:38.086Z,14.14
2023-01-06T07:29:41.122Z,14.16
2023-01-06T07:31:42.730Z,14.15
2023-01-06T07:33:44.254Z,14.18
2023-01-06T07:35:46.189Z,14.19
2023-01-06T07:37:50.550Z,14.20
2023-01-06T07:39:52.371Z,14.22
2023-01-06T07:41:53.920Z,14.22
2023-01-06T07:43:55.444Z,14.22
2023-01-06T07:45:58.189Z,14.22
2023-01-06T07:47:59.995Z,14.20
2023-01-06T07:50:02.159Z,14.19
2023-01-06T07:52:03.857Z,14.20
2023-01-06T07:54:06.590Z,14.23
2023-01-06T07:56:11.412Z,14.23
2023-01-06T07:58:13.035Z,14.24
2023-01-06T08:00:15.486Z,14.25
2023-01-06T08:02:20.809Z,14.26
2023-01-06T08:04:23.540Z,14.26
2023-01-06T08:06:25.072Z,14.27
2023-01-06T08:08:26.591Z,14.29
2023-01-06T08:10:37.439Z,14.29
2023-01-06T08:12:39.084Z,14.28
2023-01-06T08:14:40.693Z,14.30
2023-01-06T08:16:42.335Z,14.31
2023-01-06T08:18:44.117Z,14.30
2023-01-06T08:20:45.869Z,14.32
2023-01-06T08:22:47.600Z,14.32
2023-01-06T08:24:52.512Z,14.33
2023-01-06T08:26:54.093Z,14.35
2023-01-06T08:28:55.640Z,14.36
2023-01-06T08:30:59.920Z,14.37
2023-01-06T08:33:01.705Z,14.38
2023-01-06T08:35:03.337Z,14.38
2023-01-06T08:37:05.064Z,14.40
2023-01-06T08:39:09.029Z,14.40
2023-01-06T08:41:11.854Z,14.41
2023-01-06T08:43:13.623Z,14.42
2023-01-06T08:45:15.295Z,14.43
2023-01-06T08:47:17.081Z,14.46
2023-01-06T08:49:22.016Z,14.47
2023-01-06T08:51:30.802Z,14.49
2023-01-06T08:53:36.654Z,14.50
2023-01-06T08:55:40.994Z,14.52
2023-01-06T08:57:42.799Z,14.53
2023-01-06T08:59:44.553Z,14.56
2023-01-06T09:01:46.308Z,14.59
2023-01-06T09:03:48.092Z,14.61
2023-01-06T09:05:57.209Z,14.65
2023-01-06T09:07:58.772Z,14.66
2023-01-06T09:10:00.436Z,14.69
2023-01-06T09:12:02.078Z,14.72
2023-01-06T09:14:03.951Z,14.75
2023-01-06T09:16:09.787Z,14.75
2023-01-06T09:18:14.697Z,14.79
2023-01-06T09:20:18.692Z,14.81
2023-01-06T09:22:20.349Z,14.83
2023-01-06T09:24:22.009Z,14.85
2023-01-06T09:26:23.470Z,14.88
2023-01-06T09:28:25.637Z,14.90
2023-01-06T09:30:27.528Z,14.91
2023-01-06T09:32:29.041Z,14.92
2023-01-06T09:34:30.636Z,14.94
2023-01-06T09:36:34.561Z,14.94
2023-01-06T09:38:36.230Z,14.99
2023-01-06T09:40:55.132Z,15.00
2023-01-06T09:43:17.444Z,15.03
2023-01-06T09:45:21.022Z,15.06
2023-01-06T09:47:32.444Z,15.08
2023-01-06T09:49:39.967Z,15.13
2023-01-06T09:51:42.127Z,15.14
2023-01-06T09:53:51.743Z,15.17
2023-01-06T09:56:00.685Z,15.18
2023-01-06T09:58:10.201Z,15.18
2023-01-06T10:00:35.426Z,15.18
2023-01-06T10:02:40.706Z,15.19
2023-01-06T10:04:42.229Z,15.20
2023-01-06T10:07:13.622Z,15.18
2023-01-06T10:09:45.173Z,15.19
2023-01-06T10:12:05.662Z,15.19
2023-01-06T10:14:16.339Z,15.23
2023-01-06T10:17:09.191Z,15.23
2023-01-06T10:19:27.514Z,15.23
2023-01-06T10:21:54.219Z,15.24
2023-01-06T10:24:23.304Z,15.25
2023-01-06T10:26:43.146Z,15.27
2023-01-06T10:28:56.511Z,15.31
2023-01-06T10:31:02.762Z,15.31
2023-01-06T10:33:06.589Z,15.33
2023-01-06T10:35:13.721Z,15.32
2023-01-06T10:37:24.803Z,15.32
2023-01-06T10:39:28.336Z,15.33
2023-01-06T10:41:38.297Z,15.32
2023-01-06T10:43:39.784Z,15.33
2023-01-06T10:45:46.543Z,15.33
2023-01-06T10:47:51.328Z,15.31
2023-01-06T10:49:55.652Z,15.32
2023-01-06T10:52:00.551Z,15.31
2023-01-06T10:54:10.744Z,15.32
2023-01-06T10:56:12.637Z,15.32
2023-01-06T10:58:47.624Z,15.30
2023-01-06T11:01:15.632Z,15.26
2023-01-06T11:03:32.941Z,15.24
2023-01-06T11:05:35.470Z,15.22
2023-01-06T11:07:39.605Z,15.20
2023-01-06T11:09:45.212Z,15.19
2023-01-06T11:11:49.276Z,15.18
2023-01-06T11:13:56.502Z,15.15
2023-01-06T11:16:01.910Z,15.13
2023-01-06T11:18:06.256Z,15.12
2023-01-06T11:20:13.919Z,15.09
2023-01-06T11:22:39.403Z,15.06
2023-01-06T11:24:52.685Z,15.02
2023-01-06T11:27:00.090Z,15.02
2023-01-06T11:29:18.713Z,14.98
2023-01-06T11:31:28.041Z,14.98
2023-01-06T11:33:32.437Z,14.97
2023-01-06T11:35:34.054Z,14.97
2023-01-06T11:37:43.374Z,14.97
2023-01-06T11:39:49.128Z,14.96
2023-01-06T11:41:56.368Z,14.96
2023-01-06T11:44:08.114Z,14.96
2023-01-06T11:46:10.756Z,14.97
2023-01-06T11:48:51.611Z,14.96
2023-01-06T11:50:58.900Z,14.97
2023-01-06T11:53:14.990Z,14.99
2023-01-06T11:55:16.520Z,15.00
2023-01-06T11:57:30.869Z,15.01
2023-01-06T11:59:48.324Z,15.02
2023-01-06T12:01:57.998Z,15.01
2023-01-06T12:04:17.142Z,15.03
2023-01-06T12:06:29.119Z,15.03
2023-01-06T12:08:43.186Z,15.04
2023-01-06T12:10:50.649Z,15.07
2023-01-06T12:12:54.755Z,15.07
2023-01-06T12:14:56.801Z,15.08
2023-01-06T12:17:21.750Z,15.07
2023-01-06T12:19:46.283Z,15.06
2023-01-06T12:21:47.965Z,15.09
2023-01-06T12:23:51.581Z,15.07
2023-01-06T12:25:57.711Z,15.08
2023-01-06T12:28:05.289Z,15.10
2023-01-06T12:30:34.220Z,15.09
2023-01-06T12:32:42.625Z,15.11
2023-01-06T12:34:48.631Z,15.12
2023-01-06T12:36:59.058Z,15.13
2023-01-06T12:39:45.756Z,15.15
2023-01-06T12:41:47.287Z,15.16
2023-01-06T12:43:58.762Z,15.19
2023-01-06T12:46:19.632Z,15.20
2023-01-06T12:48:33.270Z,15.22
2023-01-06T12:50:36.342Z,15.25
2023-01-06T12:52:42.546Z,15.26
2023-01-06T12:54:51.527Z,15.28
2023-01-06T12:57:14.775Z,15.28
2023-01-06T12:59:16.482Z,15.28
2023-01-06T13:01:24.875Z,15.32
2023-01-06T13:03:38.061Z,15.33
2023-01-06T13:05:54.744Z,15.33
2023-01-06T13:08:38.006Z,15.35
2023-01-06T13:10:47.067Z,15.36
2023-01-06T13:13:34.352Z,15.36
2023-01-06T13:15:40.750Z,15.39
2023-01-06T13:17:51.918Z,15.40
2023-01-06T13:19:56.324Z,15.43
2023-01-06T13:22:01.451Z,15.44
2023-01-06T13:24:15.624Z,15.43
2023-01-06T13:26:23.081Z,15.45
2023-01-06T13:28:30.392Z,15.45
2023-01-06T13:30:38.177Z,15.46
2023-01-06T13:33:03.823Z,15.46
2023-01-06T13:35:32.944Z,15.46
2023-01-06T13:37:50.273Z,15.45
2023-01-06T13:39:59.596Z,15.44
2023-01-06T13:42:04.254Z,15.44
2023-01-06T13:44:17.202Z,15.42
2023-01-06T13:46:21.864Z,15.41
2023-01-06T13:48:31.171Z,15.40
2023-01-06T13:50:33.090Z,15.37
2023-01-06T13:52:35.512Z,15.35
2023-01-06T13:54:39.873Z,15.36
2023-01-06T13:56:41.479Z,15.36
2023-01-06T13:58:44.681Z,15.36
2023-01-06T14:01:24.480Z,15.34
2023-01-06T14:03:26.347Z,15.33
2023-01-06T14:05:30.991Z,15.31
2023-01-06T14:07:34.347Z,15.33
2023-01-06T14:09:56.180Z,15.30
2023-01-06T14:12:14.762Z,15.31
2023-01-06T14:14:32.482Z,15.27
2023-01-06T14:16:44.599Z,15.27
2023-01-06T14:18:54.195Z,15.28
2023-01-06T14:21:06.071Z,15.26
2023-01-06T14:23:13.487Z,15.24
2023-01-06T14:25:25.077Z,15.26
2023-01-06T14:27:45.410Z,15.25
2023-01-06T14:30:00.535Z,15.24
2023-01-06T14:32:02.085Z,15.23
2023-01-06T14:34:05.470Z,15.23
2023-01-06T14:36:17.881Z,15.22
2023-01-06T14:38:41.277Z,15.20
2023-01-06T14:40:55.235Z,15.19
2023-01-06T14:43:06.840Z,15.18
2023-01-06T14:45:26.414Z,15.19
2023-01-06T14:47:37.434Z,15.17
2023-01-06T14:49:49.813Z,15.18
2023-01-06T14:51:55.641Z,15.19
2023-01-06T14:54:04.684Z,15.18
2023-01-06T14:56:07.226Z,15.17
2023-01-06T14:58:27.833Z,15.17
2023-01-06T15:00:35.743Z,15.17
2023-01-06T15:02:39.632Z,15.15
2023-01-06T15:04:45.010Z,15.16
2023-01-06T15:06:56.778Z,15.14
2023-01-06T15:09:33.042Z,15.13
2023-01-06T15:11:42.222Z,15.12
2023-01-06T15:13:45.762Z,15.12
2023-01-06T15:16:05.022Z,15.10
2023-01-06T15:18:07.683Z,15.08
2023-01-06T15:20:13.525Z,15.07
2023-01-06T15:22:25.395Z,15.04
2023-01-06T15:24:31.011Z,15.03
2023-01-06T15:26:32.654Z,14.99
2023-01-06T15:28:38.226Z,14.99
2023-01-06T15:30:50.608Z,14.97
2023-01-06T15:32:53.821Z,14.97
2023-01-06T15:34:58.007Z,14.97
2023-01-06T15:37:02.326Z,14.96
2023-01-06T15:39:07.310Z,14.97
2023-01-06T15:41:31.818Z,14.96
2023-01-06T15:43:42.351Z,14.94
2023-01-06T15:45:56.682Z,14.95
2023-01-06T15:48:02.498Z,14.92
2023-01-06T15:50:16.322Z,14.90
2023-01-06T15:52:21.099Z,14.86
2023-01-06T15:54:28.074Z,14.84
2023-01-06T15:56:35.093Z,14.83
2023-01-06T15:58:39.559Z,14.84
2023-01-06T16:00:48.190Z,14.80
2023-01-06T16:02:50.094Z,14.82
2023-01-06T16:04:52.051Z,14.82
2023-01-06T16:06:55.882Z,14.80
2023-01-06T16:09:37.696Z,14.76
2023-01-06T16:11:57.768Z,14.74
2023-01-06T16:13:59.379Z,14.72
2023-01-06T16:16:06.220Z,14.69
2023-01-06T16:18:09.811Z,14.68
2023-01-06T16:20:24.554Z,14.64
2023-01-06T16:22:36.041Z,14.62
2023-01-06T16:24:37.669Z,14.60
2023-01-06T16:26:52.343Z,14.58
2023-01-06T16:28:57.048Z,14.56
2023-01-06T16:31:07.437Z,14.55
2023-01-06T16:33:33.354Z,14.52
2023-01-06T16:35:35.033Z,14.50
2023-01-06T16:37:37.617Z,14.50
2023-01-06T16:39:39.271Z,14.48
2023-01-06T16:42:32.480Z,14.46
2023-01-06T16:44:34.484Z,14.43
2023-01-06T16:46:36.147Z,14.43
2023-01-06T16:48:37.803Z,14.42
2023-01-06T16:50:41.327Z,14.40
2023-01-06T16:52:44.699Z,14.38
2023-01-06T16:54:52.688Z,14.37
2023-01-06T16:56:54.574Z,14.35
2023-01-06T16:58:56.363Z,14.35
2023-01-06T17:01:01.166Z,14.33
2023-01-06T17:03:13.519Z,14.31
2023-01-06T17:05:21.267Z,14.30
2023-01-06T17:07:25.339Z,14.29
2023-01-06T17:09:28.822Z,14.27
2023-01-06T17:11:37.694Z,14.25
2023-01-06T17:13:45.695Z,14.24
2023-01-06T17:15:51.767Z,14.22
2023-01-06T17:17:53.524Z,14.20
2023-01-06T17:19:55.674Z,14.19
2023-01-06T17:22:20.576Z,14.16
2023-01-06T17:24:24.647Z,14.16
2023-01-06T17:26:26.903Z,14.15
2023-01-06T17:28:30.921Z,14.14
2023-01-06T17:30:32.692Z,14.13
2023-01-06T17:32:41.218Z,14.14
2023-01-06T17:34:42.719Z,14.12
2023-01-06T17:36:50.828Z,14.10
2023-01-06T17:38:52.563Z,14.09
2023-01-06T17:40:55.305Z,14.07
2023-01-06T17:43:31.271Z,14.05
2023-01-06T17:45:34.077Z,14.06
2023-01-06T17:47:45.777Z,14.04
2023-01-06T17:49:54.927Z,14.04
2023-01-06T17:51:56.834Z,14.05
2023-01-06T17:54:17.335Z,14.03
2023-01-06T17:56:25.360Z,14.02
2023-01-06T17:58:30.156Z,14.00
2023-01-06T18:00:34.653Z,14.01
2023-01-06T18:02:43.015Z,13.98
2023-01-06T18:04:46.459Z,13.99
2023-01-06T18:06:52.859Z,13.99
2023-01-06T18:09:01.794Z,13.97
2023-01-06T18:11:22.479Z,13.97
2023-01-06T18:13:30.472Z,13.96
2023-01-06T18:15:35.827Z,13.95
2023-01-06T18:17:37.456Z,13.96
2023-01-06T18:19:39.166Z,13.96
2023-01-06T18:21:41.202Z,13.95
2023-01-06T18:23:47.421Z,13.94
2023-01-06T18:25:55.795Z,13.93
2023-01-06T18:28:02.393Z,13.92
2023-01-06T18:30:20.989Z,13.92
2023-01-06T18:32:32.775Z,13.91
2023-01-06T18:34:39.972Z,13.92
2023-01-06T18:36:44.460Z,13.90
2023-01-06T18:38:47.167Z,13.90
2023-01-06T18:40:51.605Z,13.90
2023-01-06T18:42:56.978Z,13.90
2023-01-06T18:45:15.339Z,13.88
2023-01-06T18:47:22.521Z,13.89
2023-01-06T18:49:32.358Z,13.87
2023-01-06T18:51:33.955Z,13.88
2023-01-06T18:53:43.515Z,13.84
2023-01-06T18:55:46.136Z,13.85
2023-01-06T18:58:01.070Z,13.83
2023-01-06T19:00:36.164Z,13.82
2023-01-06T19:02:39.411Z,13.81
2023-01-06T19:04:42.575Z,13.82
2023-01-06T19:06:50.389Z,13.81
2023-01-06T19:08:52.440Z,13.81
2023-01-06T19:10:54.147Z,13.80
2023-01-06T19:12:59.068Z,13.81
2023-01-06T19:15:18.649Z,13.79
2023-01-06T19:17:33.614Z,13.78
2023-01-06T19:19:39.782Z,13.77
2023-01-06T19:21:41.284Z,13.76
2023-01-06T19:23:43.043Z,13.75
2023-01-06T19:25:48.550Z,13.75
2023-01-06T19:27:53.488Z,13.74
2023-01-06T19:30:13.226Z,13.73
2023-01-06T19:33:23.590Z,13.71
2023-01-06T19:35:33.200Z,13.70
2023-01-06T19:37:34.657Z,13.69
2023-01-06T19:43:19.570Z,13.66
2023-01-06T19:45:32.538Z,13.64
2023-01-06T19:47:40.896Z,13.66
2023-01-06T19:49:46.622Z,13.65
2023-01-06T19:51:50.107Z,13.65
2023-01-06T19:54:02.047Z,13.65
2023-01-06T19:56:20.699Z,13.65
2023-01-06T19:58:34.469Z,13.64
2023-01-06T20:00:50.183Z,13.63
2023-01-06T20:02:57.429Z,13.65
2023-01-06T20:04:59.305Z,13.66
2023-01-06T20:07:02.218Z,13.66
2023-01-06T20:09:03.834Z,13.64
2023-01-06T20:11:05.678Z,13.65
2023-01-06T20:13:11.802Z,13.65
2023-01-06T20:15:16.573Z,13.65
2023-01-06T20:17:18.201Z,13.66
2023-01-06T20:19:21.562Z,13.66
2023-01-06T20:21:23.280Z,13.65
2023-01-06T20:30:09.422Z,13.61
2023-01-06T20:32:12.424Z,13.63
2023-01-06T20:34:14.284Z,13.62
2023-01-06T20:36:17.312Z,13.62
2023-01-06T20:38:19.191Z,13.63
2023-01-06T20:40:22.510Z,13.62
2023-01-06T20:42:24.091Z,13.62
2023-01-06T20:44:27.273Z,13.62
2023-01-06T20:46:31.685Z,13.63
2023-01-06T20:48:33.400Z,13.62
2023-01-06T20:50:35.385Z,13.63
2023-01-06T20:52:37.058Z,13.62
2023-01-06T20:54:38.815Z,13.64
2023-01-06T20:56:41.582Z,13.63
2023-01-06T20:58:43.213Z,13.62
2023-01-06T21:00:44.985Z,13.62
2023-01-06T21:02:49.241Z,13.61
2023-01-06T21:04:51.173Z,13.62
2023-01-06T21:06:52.815Z,13.61
2023-01-06T21:08:57.397Z,13.61
2023-01-06T21:10:59.075Z,13.61
2023-01-06T21:13:00.791Z,13.61
2023-01-06T21:15:06.782Z,13.62
2023-01-06T21:17:08.415Z,13.62
2023-01-06T21:19:09.987Z,13.62
2023-01-06T21:21:11.580Z,13.61
2023-01-06T21:23:13.164Z,13.61
2023-01-06T21:25:16.475Z,13.62
2023-01-06T21:27:18.223Z,13.61
2023-01-06T21:29:19.861Z,13.62
2023-01-06T21:31:24.987Z,13.62
2023-01-06T21:33:27.702Z,13.61
2023-01-06T21:35:29.442Z,13.61
2023-01-06T21:37:32.169Z,13.61
2023-01-06T21:39:33.782Z,13.59
2023-01-06T21:44:09.568Z,13.57
2023-01-06T21:46:11.380Z,13.56
2023-01-06T21:48:14.599Z,13.56
2023-01-06T21:50:16.427Z,13.54
2023-01-06T21:52:18.219Z,13.53
2023-01-06T21:54:20.606Z,13.53
2023-01-06T21:56:24.836Z,13.52
2023-01-06T21:58:26.574Z,13.49
2023-01-06T22:00:28.399Z,13.49
2023-01-06T22:02:30.037Z,13.49
2023-01-06T22:04:31.846Z,13.49
2023-01-06T22:06:34.999Z,13.49
2023-01-06T22:08:37.320Z,13.48
2023-01-06T22:10:41.322Z,13.47
2023-01-06T22:12:45.406Z,13.47
2023-01-06T22:14:50.429Z,13.49
2023-01-06T22:16:52.648Z,13.49
2023-01-06T22:18:55.290Z,13.49
2023-01-06T22:20:58.894Z,13.47
2023-01-06T22:23:03.546Z,13.48
2023-01-06T22:25:08.358Z,13.48
2023-01-06T22:27:10.196Z,13.48
2023-01-06T22:29:11.955Z,13.48
2023-01-06T22:31:13.774Z,13.47
2023-01-06T22:33:18.427Z,13.47
2023-01-06T22:35:20.553Z,13.47
2023-01-06T22:37:22.097Z,13.50
2023-01-06T22:39:24.103Z,13.48
2023-01-06T22:41:25.839Z,13.48
2023-01-06T22:43:30.814Z,13.48
2023-01-06T22:45:35.064Z,13.49
2023-01-06T22:47:36.776Z,13.49
2023-01-06T22:49:38.276Z,13.49
2023-01-06T22:51:40.154Z,13.49
2023-01-06T22:53:44.721Z,13.49
2023-01-06T22:55:46.373Z,13.49
2023-01-06T22:57:48.131Z,13.48
2023-01-06T22:59:49.666Z,13.49
2023-01-06T23:01:52.924Z,13.49
2023-01-06T23:03:54.872Z,13.48
2023-01-06T23:06:02.168Z,13.49
2023-01-06T23:08:06.894Z,13.48
2023-01-06T23:10:14.954Z,13.49
2023-01-06T23:12:16.587Z,13.48
2023-01-06T23:14:18.379Z,13.48
2023-01-06T23:16:20.236Z,13.48
2023-01-06T23:18:21.781Z,13.48
2023-01-06T23:20:23.581Z,13.47
2023-01-06T23:22:26.645Z,13.47
2023-01-06T23:24:30.628Z,13.48
2023-01-06T23:26:37.522Z,13.47
2023-01-06T23:28:39.504Z,13.48
2023-01-06T23:30:41.027Z,13.47
2023-01-06T23:32:42.654Z,13.48
2023-01-06T23:34:44.227Z,13.48
2023-01-06T23:36:48.444Z,13.46
2023-01-06T23:38:50.516Z,13.46
2023-01-06T23:40:52.147Z,13.47
2023-01-06T23:42:59.880Z,13.46
2023-01-06T23:45:01.959Z,13.47
2023-01-06T23:47:03.648Z,13.47
2023-01-06T23:49:06.379Z,13.46
2023-01-06T23:51:09.390Z,13.46
2023-01-06T23:53:11.083Z,13.44
2023-01-06T23:55:12.737Z,13.48
2023-01-06T23:57:16.154Z,13.48
2023-01-06T23:59:17.836Z,13.47
